createdAt,value
2023-03-16T00:02:18.800Z,3.20
2023-03-16T00:04:42.171Z,3.20
2023-03-16T00:07:08.070Z,3.10
2023-03-16T00:09:31.888Z,3.20
2023-03-16T00:11:55.268Z,3.30
2023-03-16T00:14:18.915Z,3.20
2023-03-16T00:16:42.238Z,3.10
2023-03-16T00:19:06.400Z,3.10
2023-03-16T00:21:30.526Z,3.10
2023-03-16T00:23:55.158Z,3.20
2023-03-16T00:26:18.494Z,3.10
2023-03-16T00:28:42.695Z,3.20
2023-03-16T00:31:08.976Z,3.20
2023-03-16T00:33:34.740Z,3.10
2023-03-16T00:36:03.437Z,3.10
2023-03-16T00:38:26.723Z,3.10
2023-03-16T00:40:51.419Z,3.20
2023-03-16T00:43:18.669Z,3.10
2023-03-16T00:45:45.039Z,3.20
2023-03-16T00:48:08.381Z,3.20
2023-03-16T00:50:31.666Z,3.30
2023-03-16T00:52:55.004Z,3.30
2023-03-16T00:55:19.022Z,3.40
2023-03-16T00:57:43.840Z,3.30
2023-03-16T01:00:13.045Z,3.20
2023-03-16T01:02:37.026Z,3.20
2023-03-16T01:05:00.280Z,3.20
2023-03-16T01:07:24.213Z,3.30
2023-03-16T01:09:48.446Z,3.30
2023-03-16T01:12:14.643Z,3.30
2023-03-16T01:14:40.038Z,3.40
2023-03-16T01:17:03.867Z,3.40
2023-03-16T01:19:27.462Z,3.40
2023-03-16T01:21:50.744Z,3.40
2023-03-16T01:24:14.514Z,3.40
2023-03-16T01:26:37.880Z,3.40
2023-03-16T01:29:02.320Z,3.40
2023-03-16T01:31:28.131Z,3.40
2023-03-16T01:33:52.237Z,3.40
2023-03-16T01:36:20.402Z,3.40
2023-03-16T01:38:49.052Z,3.50
2023-03-16T01:41:13.751Z,3.50
2023-03-16T01:43:39.946Z,3.50
2023-03-16T01:46:22.849Z,3.40
2023-03-16T01:49:01.756Z,3.50
2023-03-16T01:51:33.543Z,3.50
2023-03-16T01:54:04.347Z,3.50
2023-03-16T01:56:34.624Z,3.50
2023-03-16T01:59:00.943Z,3.40
2023-03-16T02:01:24.404Z,3.40
2023-03-16T02:03:47.811Z,3.50
2023-03-16T02:06:23.061Z,3.50
2023-03-16T02:08:55.342Z,3.50
2023-03-16T02:11:18.819Z,3.40
2023-03-16T02:14:05.194Z,3.40
2023-03-16T02:16:28.532Z,3.40
2023-03-16T02:18:52.448Z,3.30
2023-03-16T02:21:27.436Z,3.40
2023-03-16T02:23:51.729Z,3.30
2023-03-16T02:26:24.037Z,3.40
2023-03-16T02:28:55.218Z,3.40
2023-03-16T02:31:22.266Z,3.40
2023-03-16T02:33:48.574Z,3.40
2023-03-16T02:36:12.215Z,3.40
2023-03-16T02:38:35.599Z,3.40
2023-03-16T02:41:02.893Z,3.40
2023-03-16T02:43:33.464Z,3.40
2023-03-16T02:46:29.785Z,3.40
2023-03-16T02:49:03.078Z,3.40
2023-03-16T02:51:26.777Z,3.30
2023-03-16T02:53:51.125Z,3.40
2023-03-16T02:56:15.323Z,3.30
2023-03-16T02:58:39.015Z,3.40
2023-03-16T03:01:07.986Z,3.40
2023-03-16T03:03:34.603Z,3.40
2023-03-16T03:05:57.953Z,3.40
2023-03-16T03:08:22.970Z,3.40
2023-03-16T03:10:49.085Z,3.40
2023-03-16T03:13:12.443Z,3.40
2023-03-16T03:15:37.111Z,3.50
2023-03-16T03:18:04.660Z,3.50
2023-03-16T03:20:30.481Z,3.40
2023-03-16T03:22:54.170Z,3.40
2023-03-16T03:25:18.984Z,3.50
2023-03-16T03:27:43.429Z,3.40
2023-03-16T03:30:11.031Z,3.40
2023-03-16T03:32:34.322Z,3.40
2023-03-16T03:34:58.009Z,3.50
2023-03-16T03:37:24.529Z,3.40
2023-03-16T03:39:48.337Z,3.50
2023-03-16T03:42:12.591Z,3.50
2023-03-16T03:44:36.071Z,3.50
2023-03-16T03:46:59.439Z,3.50
2023-03-16T03:49:23.486Z,3.50
2023-03-16T03:51:47.018Z,3.40
2023-03-16T03:54:15.397Z,3.50
2023-03-16T03:56:47.622Z,3.50
2023-03-16T03:59:13.060Z,3.50
2023-03-16T04:01:59.807Z,3.50
2023-03-16T04:04:33.434Z,3.50
2023-03-16T04:06:56.686Z,3.50
2023-03-16T04:09:21.333Z,3.50
2023-03-16T04:11:45.048Z,3.50
2023-03-16T04:14:08.903Z,3.70
2023-03-16T04:16:35.941Z,3.60
2023-03-16T04:18:59.572Z,3.60
2023-03-16T04:21:23.685Z,3.70
2023-03-16T04:23:47.018Z,3.70
2023-03-16T04:26:11.829Z,3.70
2023-03-16T04:28:36.741Z,3.70
2023-03-16T04:31:05.306Z,3.60
2023-03-16T04:33:33.225Z,3.60
2023-03-16T04:35:56.624Z,3.50
2023-03-16T04:38:20.976Z,3.60
2023-03-16T04:40:51.294Z,3.60
2023-03-16T04:43:19.612Z,3.60
2023-03-16T04:45:44.061Z,3.60
2023-03-16T04:48:08.035Z,3.60
2023-03-16T04:50:31.525Z,3.60
2023-03-16T04:52:54.852Z,3.60
2023-03-16T04:55:18.463Z,3.60
2023-03-16T04:57:41.894Z,3.60
2023-03-16T05:00:11.750Z,3.60
2023-03-16T05:02:42.905Z,3.60
2023-03-16T05:05:08.194Z,3.60
2023-03-16T05:07:33.341Z,3.60
2023-03-16T05:09:56.783Z,3.60
2023-03-16T05:12:20.251Z,3.60
2023-03-16T05:14:48.039Z,3.60
2023-03-16T05:17:22.244Z,3.70
2023-03-16T05:19:45.811Z,3.60
2023-03-16T05:22:10.584Z,3.70
2023-03-16T05:24:37.112Z,3.70
2023-03-16T05:27:03.405Z,3.60
2023-03-16T05:29:27.136Z,3.60
2023-03-16T05:31:50.514Z,3.70
2023-03-16T05:34:18.969Z,3.70
2023-03-16T05:36:42.464Z,3.70
2023-03-16T05:39:10.120Z,3.70
2023-03-16T05:41:38.040Z,3.70
2023-03-16T05:44:24.672Z,3.70
2023-03-16T05:47:00.863Z,3.70
2023-03-16T05:49:26.756Z,3.70
2023-03-16T05:51:50.529Z,3.80
2023-03-16T05:54:13.966Z,3.70
2023-03-16T05:56:42.262Z,3.70
2023-03-16T05:59:05.881Z,3.80
2023-03-16T06:01:29.644Z,3.80
2023-03-16T06:03:53.831Z,3.70
2023-03-16T06:06:24.539Z,3.80
2023-03-16T06:08:59.565Z,3.70
2023-03-16T06:11:24.198Z,3.80
2023-03-16T06:13:47.559Z,3.90
2023-03-16T06:16:11.613Z,3.90
2023-03-16T06:18:35.487Z,3.90
2023-03-16T06:20:59.626Z,3.80
2023-03-16T06:23:24.770Z,3.90
2023-03-16T06:25:49.116Z,3.90
2023-03-16T06:28:13.553Z,4.00
2023-03-16T06:30:36.838Z,4.00
2023-03-16T06:33:00.360Z,4.10
2023-03-16T06:35:23.683Z,4.10
2023-03-16T06:38:01.809Z,4.20
2023-03-16T06:40:55.152Z,4.30
2023-03-16T06:43:19.971Z,4.30
2023-03-16T06:45:44.683Z,4.40
2023-03-16T06:48:09.860Z,4.40
2023-03-16T06:50:33.482Z,4.40
2023-03-16T06:52:57.591Z,4.40
2023-03-16T06:55:21.520Z,4.50
2023-03-16T06:57:47.661Z,4.40
2023-03-16T07:00:15.353Z,4.40
2023-03-16T07:02:40.580Z,4.50
2023-03-16T07:05:05.856Z,4.50
2023-03-16T07:07:29.426Z,4.50
2023-03-16T07:09:52.831Z,4.50
2023-03-16T07:12:16.274Z,4.50
2023-03-16T07:14:42.048Z,4.50
2023-03-16T07:17:07.849Z,4.50
2023-03-16T07:19:31.505Z,4.50
2023-03-16T07:21:57.994Z,4.50
2023-03-16T07:24:22.563Z,4.50
2023-03-16T07:26:46.820Z,4.60
2023-03-16T07:29:19.421Z,4.60
2023-03-16T07:31:44.377Z,4.60
2023-03-16T07:34:13.179Z,4.60
2023-03-16T07:36:43.982Z,4.80
2023-03-16T07:39:07.990Z,4.80
2023-03-16T07:41:32.775Z,4.70
2023-03-16T07:44:10.620Z,4.80
2023-03-16T07:46:34.135Z,4.90
2023-03-16T07:48:59.102Z,5.00
2023-03-16T07:51:23.973Z,4.90
2023-03-16T07:53:48.461Z,5.00
2023-03-16T07:56:21.422Z,5.00
2023-03-16T07:58:48.746Z,5.00
2023-03-16T08:01:12.643Z,5.10
2023-03-16T08:03:36.076Z,5.10
2023-03-16T08:06:01.164Z,5.20
2023-03-16T08:08:24.619Z,5.30
2023-03-16T08:10:51.651Z,5.40
2023-03-16T08:13:17.758Z,5.50
2023-03-16T08:15:42.326Z,5.50
2023-03-16T08:18:13.930Z,5.50
2023-03-16T08:20:37.423Z,5.50
2023-03-16T08:23:02.112Z,5.50
2023-03-16T08:25:32.716Z,5.60
2023-03-16T08:28:02.301Z,5.70
2023-03-16T08:30:27.163Z,5.70
2023-03-16T08:33:07.068Z,5.80
2023-03-16T08:35:31.012Z,5.80
2023-03-16T08:37:54.336Z,5.80
2023-03-16T08:40:22.489Z,5.90
2023-03-16T08:42:46.397Z,5.90
2023-03-16T08:45:14.170Z,5.90
2023-03-16T08:47:40.307Z,5.90
2023-03-16T08:50:03.761Z,6.00
2023-03-16T08:52:27.213Z,6.00
2023-03-16T08:55:02.306Z,6.00
2023-03-16T08:57:28.485Z,6.10
2023-03-16T08:59:52.000Z,6.10
2023-03-16T09:02:15.767Z,6.00
2023-03-16T09:04:39.136Z,6.10
2023-03-16T09:07:08.740Z,6.10
2023-03-16T09:09:34.049Z,6.30
2023-03-16T09:11:57.630Z,6.20
2023-03-16T09:14:22.220Z,6.40
2023-03-16T09:16:45.925Z,6.50
2023-03-16T09:19:09.168Z,6.50
2023-03-16T09:21:32.508Z,6.60
2023-03-16T09:23:56.244Z,6.50
2023-03-16T09:26:20.783Z,6.60
2023-03-16T09:28:44.196Z,6.70
2023-03-16T09:31:10.030Z,6.80
2023-03-16T09:33:34.194Z,6.80
2023-03-16T09:35:58.707Z,6.70
2023-03-16T09:38:22.126Z,6.80
2023-03-16T09:40:47.200Z,6.80
2023-03-16T09:43:26.127Z,6.90
2023-03-16T09:45:57.798Z,7.00
2023-03-16T09:48:25.159Z,7.00
2023-03-16T09:50:49.847Z,7.00
2023-03-16T09:53:24.825Z,7.00
2023-03-16T09:57:02.561Z,7.10
2023-03-16T10:00:02.951Z,7.20
2023-03-16T10:03:50.223Z,7.40
2023-03-16T10:06:16.210Z,7.40
2023-03-16T10:08:44.245Z,7.30
2023-03-16T10:11:24.234Z,7.50
2023-03-16T10:13:55.074Z,7.50
2023-03-16T10:16:22.785Z,7.50
2023-03-16T10:18:48.697Z,7.50
2023-03-16T10:21:20.404Z,7.40
2023-03-16T10:23:46.493Z,7.50
2023-03-16T10:26:18.699Z,7.60
2023-03-16T10:28:43.117Z,7.80
2023-03-16T10:31:07.243Z,8.00
2023-03-16T10:33:33.596Z,8.20
2023-03-16T10:36:03.795Z,8.20
2023-03-16T10:38:38.700Z,8.50
2023-03-16T10:41:02.196Z,8.60
2023-03-16T10:43:26.144Z,8.50
2023-03-16T10:45:49.938Z,8.50
2023-03-16T10:48:18.922Z,8.60
2023-03-16T10:50:44.305Z,8.80
2023-03-16T10:53:21.713Z,9.00
2023-03-16T10:55:50.317Z,8.90
2023-03-16T10:58:25.258Z,8.90
2023-03-16T11:00:48.553Z,9.00
2023-03-16T11:03:23.106Z,9.00
2023-03-16T11:05:47.228Z,9.00
2023-03-16T11:08:17.612Z,9.00
2023-03-16T11:10:55.304Z,9.20
2023-03-16T11:13:22.712Z,9.60
2023-03-16T11:15:53.061Z,9.70
2023-03-16T11:18:30.092Z,9.90
2023-03-16T11:20:54.524Z,10.40
2023-03-16T11:23:22.609Z,10.80
2023-03-16T11:25:49.998Z,10.60
2023-03-16T11:28:17.769Z,10.50
2023-03-16T11:30:48.136Z,10.60
2023-03-16T11:33:14.203Z,10.30
2023-03-16T11:35:58.535Z,10.40
2023-03-16T11:38:29.364Z,10.50
2023-03-16T11:41:00.280Z,10.60
2023-03-16T11:43:49.466Z,10.80
2023-03-16T11:46:20.167Z,10.50
2023-03-16T11:48:52.947Z,10.80
2023-03-16T11:51:36.394Z,10.80
2023-03-16T11:54:20.698Z,11.00
2023-03-16T11:56:48.705Z,10.70
2023-03-16T12:00:03.810Z,10.80
2023-03-16T12:02:54.224Z,10.70
2023-03-16T12:05:45.061Z,10.50
2023-03-16T12:08:31.499Z,10.60
2023-03-16T12:11:02.295Z,10.60
2023-03-16T12:13:41.795Z,10.50
2023-03-16T12:16:13.884Z,10.50
2023-03-16T12:18:45.569Z,10.50
2023-03-16T12:21:15.264Z,10.50
2023-03-16T12:23:44.126Z,10.50
2023-03-16T12:26:08.894Z,10.50
2023-03-16T12:28:34.380Z,10.50
2023-03-16T12:31:10.304Z,10.60
2023-03-16T12:33:52.985Z,10.70
2023-03-16T12:36:58.097Z,10.70
2023-03-16T12:39:37.392Z,10.70
2023-03-16T12:42:15.445Z,10.70
2023-03-16T12:44:47.072Z,10.70
2023-03-16T12:47:22.828Z,10.70
2023-03-16T12:49:48.126Z,10.60
2023-03-16T12:52:14.615Z,10.60
2023-03-16T12:54:38.927Z,10.70
2023-03-16T12:57:05.087Z,10.80
2023-03-16T12:59:40.103Z,10.80
2023-03-16T13:02:06.698Z,10.70
2023-03-16T13:04:34.516Z,11.00
2023-03-16T13:07:07.650Z,11.40
2023-03-16T13:09:32.702Z,11.70
2023-03-16T13:11:56.199Z,11.80
2023-03-16T13:14:38.790Z,12.00
2023-03-16T13:17:12.410Z,11.80
2023-03-16T13:19:37.899Z,11.80
2023-03-16T13:22:08.347Z,12.10
2023-03-16T13:24:40.914Z,12.10
2023-03-16T13:27:11.501Z,12.10
2023-03-16T13:29:37.180Z,12.30
2023-03-16T13:32:08.673Z,12.10
2023-03-16T13:34:37.160Z,12.10
2023-03-16T13:37:02.748Z,12.10
2023-03-16T13:39:28.539Z,12.30
2023-03-16T13:42:00.691Z,12.10
2023-03-16T13:44:25.342Z,12.10
2023-03-16T13:46:50.802Z,12.20
2023-03-16T13:49:14.121Z,12.20
2023-03-16T13:51:39.998Z,12.30
2023-03-16T13:54:20.434Z,12.30
2023-03-16T13:56:44.681Z,12.20
2023-03-16T13:59:10.664Z,12.30
2023-03-16T14:01:34.235Z,12.30
2023-03-16T14:04:00.536Z,12.30
2023-03-16T14:06:26.831Z,12.90
2023-03-16T14:08:53.528Z,13.10
2023-03-16T14:11:18.250Z,12.60
2023-03-16T14:13:42.025Z,12.80
2023-03-16T14:16:13.682Z,12.70
2023-03-16T14:18:41.728Z,12.70
2023-03-16T14:21:09.986Z,12.80
2023-03-16T14:23:39.072Z,12.70
2023-03-16T14:26:05.769Z,12.70
2023-03-16T14:28:34.069Z,12.70
2023-03-16T14:31:07.314Z,13.00
2023-03-16T14:33:33.329Z,12.90
2023-03-16T14:35:58.329Z,13.10
2023-03-16T14:38:23.495Z,13.00
2023-03-16T14:40:54.816Z,13.10
2023-03-16T14:43:18.232Z,12.80
2023-03-16T14:45:43.168Z,12.80
2023-03-16T14:48:10.935Z,12.90
2023-03-16T14:50:34.839Z,12.90
2023-03-16T14:52:58.525Z,13.30
2023-03-16T14:55:22.857Z,13.10
2023-03-16T14:57:47.309Z,13.10
2023-03-16T15:00:13.076Z,13.00
2023-03-16T15:02:38.270Z,13.00
2023-03-16T15:05:03.700Z,13.10
2023-03-16T15:07:30.542Z,13.20
2023-03-16T15:09:55.537Z,13.00
2023-03-16T15:12:21.790Z,13.00
2023-03-16T15:15:02.749Z,13.20
2023-03-16T15:17:26.058Z,12.90
2023-03-16T15:19:51.487Z,13.20
2023-03-16T15:22:15.233Z,13.40
2023-03-16T15:24:38.503Z,13.30
2023-03-16T15:27:02.012Z,13.20
2023-03-16T15:29:25.630Z,13.20
2023-03-16T15:31:49.003Z,13.00
2023-03-16T15:34:12.424Z,13.20
2023-03-16T15:36:37.499Z,12.80
2023-03-16T15:39:02.063Z,12.90
2023-03-16T15:41:30.166Z,13.00
2023-03-16T15:44:00.666Z,12.60
2023-03-16T15:46:24.088Z,12.70
2023-03-16T15:48:47.804Z,12.60
2023-03-16T15:51:22.848Z,12.70
2023-03-16T15:53:52.211Z,12.50
2023-03-16T15:56:19.740Z,12.60
2023-03-16T15:58:45.760Z,12.40
2023-03-16T16:01:14.409Z,12.20
2023-03-16T16:03:38.240Z,12.20
2023-03-16T16:06:01.949Z,12.10
2023-03-16T16:08:25.266Z,12.10
2023-03-16T16:10:53.395Z,12.00
2023-03-16T16:13:22.230Z,12.00
2023-03-16T16:15:47.990Z,12.00
2023-03-16T16:18:30.200Z,12.00
2023-03-16T16:20:53.867Z,12.00
2023-03-16T16:23:18.061Z,12.00
2023-03-16T16:25:43.651Z,11.90
2023-03-16T16:28:15.743Z,12.00
2023-03-16T16:30:39.838Z,12.20
2023-03-16T16:33:03.311Z,12.50
2023-03-16T16:35:29.522Z,12.50
2023-03-16T16:37:53.443Z,12.50
2023-03-16T16:40:19.480Z,12.50
2023-03-16T16:42:42.933Z,12.30
2023-03-16T16:45:15.606Z,12.00
2023-03-16T16:47:38.869Z,12.20
2023-03-16T16:50:02.229Z,12.00
2023-03-16T16:52:25.595Z,11.80
2023-03-16T16:54:48.809Z,11.80
2023-03-16T16:57:19.333Z,11.60
2023-03-16T16:59:44.840Z,11.60
2023-03-16T17:02:24.844Z,11.50
2023-03-16T17:04:50.601Z,11.60
2023-03-16T17:07:14.229Z,11.50
2023-03-16T17:09:37.554Z,11.40
2023-03-16T17:12:02.389Z,11.40
2023-03-16T17:14:28.178Z,11.40
2023-03-16T17:16:51.850Z,11.30
2023-03-16T17:19:22.469Z,11.30
2023-03-16T17:21:46.445Z,11.20
2023-03-16T17:24:10.373Z,11.20
2023-03-16T17:26:38.353Z,11.00
2023-03-16T17:29:06.185Z,11.00
2023-03-16T17:31:36.350Z,11.00
2023-03-16T17:33:59.898Z,10.90
2023-03-16T17:36:25.190Z,10.80
2023-03-16T17:38:49.927Z,10.90
2023-03-16T17:41:23.933Z,10.80
2023-03-16T17:43:47.936Z,10.80
2023-03-16T17:46:11.773Z,10.70
2023-03-16T17:48:35.200Z,10.80
2023-03-16T17:50:58.541Z,10.70
2023-03-16T17:53:23.209Z,10.60
2023-03-16T17:55:47.950Z,10.60
2023-03-16T17:58:24.743Z,10.50
2023-03-16T18:00:49.383Z,10.50
2023-03-16T18:03:17.271Z,10.50
2023-03-16T18:05:41.811Z,10.50
2023-03-16T18:08:15.727Z,10.50
2023-03-16T18:10:41.210Z,10.50
2023-03-16T18:13:08.856Z,10.50
2023-03-16T18:15:37.581Z,10.40
2023-03-16T18:18:02.400Z,10.40
2023-03-16T18:20:31.320Z,10.40
2023-03-16T18:22:56.159Z,10.40
2023-03-16T18:25:35.251Z,10.30
2023-03-16T18:28:00.273Z,10.30
2023-03-16T18:30:23.513Z,10.30
2023-03-16T18:32:46.987Z,10.20
2023-03-16T18:35:16.764Z,10.30
2023-03-16T18:37:40.121Z,10.20
2023-03-16T18:40:03.411Z,10.20
2023-03-16T18:42:28.864Z,10.20
2023-03-16T18:44:53.575Z,10.10
2023-03-16T18:47:19.688Z,10.20
2023-03-16T18:49:43.660Z,10.10
2023-03-16T18:52:22.186Z,10.10
2023-03-16T18:54:46.632Z,10.10
2023-03-16T18:57:18.418Z,10.00
2023-03-16T18:59:41.738Z,10.00
2023-03-16T19:02:11.836Z,10.00
2023-03-16T19:04:36.149Z,10.00
2023-03-16T19:06:59.607Z,9.90
2023-03-16T19:09:26.632Z,10.00
2023-03-16T19:11:50.413Z,9.90
2023-03-16T19:14:18.520Z,10.00
2023-03-16T19:16:41.851Z,9.90
2023-03-16T19:19:07.043Z,9.90
2023-03-16T19:21:32.687Z,9.80
2023-03-16T19:24:00.464Z,9.80
2023-03-16T19:26:23.880Z,9.90
2023-03-16T19:28:47.277Z,9.80
2023-03-16T19:31:19.680Z,9.70
2023-03-16T19:33:43.229Z,9.70
2023-03-16T19:36:17.242Z,9.80
2023-03-16T19:38:41.181Z,9.80
2023-03-16T19:41:04.498Z,9.60
2023-03-16T19:43:28.829Z,9.60
2023-03-16T19:45:52.702Z,9.60
2023-03-16T19:48:20.388Z,9.50
2023-03-16T19:50:43.736Z,9.60
2023-03-16T19:53:18.031Z,9.50
2023-03-16T19:55:41.345Z,9.50
2023-03-16T19:58:07.595Z,9.50
2023-03-16T20:00:31.439Z,9.50
2023-03-16T20:02:56.475Z,9.50
2023-03-16T20:05:22.921Z,9.50
2023-03-16T20:07:46.233Z,9.50
2023-03-16T20:10:17.475Z,9.50
2023-03-16T20:12:43.030Z,9.40
2023-03-16T20:15:07.282Z,9.40
2023-03-16T20:17:32.919Z,9.50
2023-03-16T20:19:57.724Z,9.40
2023-03-16T20:22:24.456Z,9.40
2023-03-16T20:24:49.393Z,9.40
2023-03-16T20:27:14.320Z,9.30
2023-03-16T20:29:37.590Z,9.30
2023-03-16T20:32:02.094Z,9.30
2023-03-16T20:34:28.725Z,9.20
2023-03-16T20:36:52.196Z,9.30
2023-03-16T20:39:15.552Z,9.30
2023-03-16T20:41:39.331Z,9.40
2023-03-16T20:44:04.868Z,9.40
2023-03-16T20:46:31.342Z,9.20
2023-03-16T20:48:54.860Z,9.10
2023-03-16T20:51:18.779Z,9.20
2023-03-16T20:53:43.686Z,9.20
2023-03-16T20:56:15.122Z,9.20
2023-03-16T20:58:39.472Z,9.20
2023-03-16T21:01:04.205Z,9.10
2023-03-16T21:03:30.622Z,9.20
2023-03-16T21:05:55.487Z,9.20
2023-03-16T21:08:20.413Z,9.10
2023-03-16T21:10:44.630Z,9.00
2023-03-16T21:13:10.837Z,9.20
2023-03-16T21:15:35.230Z,9.10
2023-03-16T21:18:02.890Z,9.10
2023-03-16T21:20:28.988Z,9.10
2023-03-16T21:22:52.344Z,9.00
2023-03-16T21:25:24.520Z,9.00
2023-03-16T21:27:49.648Z,9.10
2023-03-16T21:30:26.240Z,9.10
2023-03-16T21:32:49.787Z,9.00
2023-03-16T21:35:17.104Z,9.00
2023-03-16T21:37:41.041Z,9.00
2023-03-16T21:40:09.616Z,9.00
2023-03-16T21:42:32.866Z,9.00
2023-03-16T21:44:56.051Z,9.00
2023-03-16T21:47:26.290Z,9.00
2023-03-16T21:49:50.263Z,9.00
2023-03-16T21:52:24.258Z,9.00
2023-03-16T21:54:47.611Z,9.00
2023-03-16T21:57:15.241Z,9.00
2023-03-16T21:59:38.545Z,9.00
2023-03-16T22:02:02.594Z,9.00
2023-03-16T22:04:26.131Z,9.10
2023-03-16T22:06:49.392Z,9.00
2023-03-16T22:09:19.413Z,9.10
2023-03-16T22:11:42.730Z,9.10
2023-03-16T22:14:09.872Z,9.00
2023-03-16T22:16:37.864Z,9.00
2023-03-16T22:19:01.206Z,9.00
2023-03-16T22:21:30.681Z,9.00
2023-03-16T22:23:55.460Z,9.00
2023-03-16T22:26:22.528Z,9.00
2023-03-16T22:28:46.645Z,9.00
2023-03-16T22:31:12.044Z,9.00
2023-03-16T22:33:37.817Z,9.00
2023-03-16T22:36:08.417Z,9.00
2023-03-16T22:38:31.778Z,9.00
2023-03-16T22:40:55.599Z,9.00
2023-03-16T22:43:25.520Z,9.00
2023-03-16T22:45:49.203Z,9.00
2023-03-16T22:48:22.895Z,9.00
2023-03-16T22:50:48.213Z,9.00
2023-03-16T22:53:19.106Z,9.00
2023-03-16T22:55:42.456Z,9.00
2023-03-16T22:58:12.147Z,9.00
2023-03-16T23:00:38.238Z,9.00
2023-03-16T23:03:02.219Z,9.00
2023-03-16T23:05:29.278Z,9.00
2023-03-16T23:07:53.592Z,9.00
2023-03-16T23:10:19.063Z,9.00
2023-03-16T23:12:42.713Z,9.00
2023-03-16T23:15:17.918Z,8.90
2023-03-16T23:17:42.614Z,8.90
2023-03-16T23:20:18.533Z,8.90
2023-03-16T23:22:42.250Z,9.00
2023-03-16T23:25:06.492Z,9.00
2023-03-16T23:27:29.882Z,9.00
2023-03-16T23:29:53.175Z,9.00
2023-03-16T23:32:17.879Z,9.00
2023-03-16T23:34:42.657Z,9.00
2023-03-16T23:37:06.028Z,9.00
2023-03-16T23:39:29.483Z,9.00
2023-03-16T23:41:53.889Z,9.00
2023-03-16T23:44:18.887Z,9.00
2023-03-16T23:46:42.098Z,9.20
2023-03-16T23:49:06.472Z,9.10
2023-03-16T23:51:35.277Z,9.00
2023-03-16T23:53:59.389Z,9.00
2023-03-16T23:56:23.342Z,9.00
2023-03-16T23:58:46.834Z,9.10
